sensor_id;sensor_type;location;lat;lon;timestamp;P1;durP1;ratioP1;P2;durP2;ratioP2
41897;SDS011;27576;53.366;-1.498;2024-02-28T00:01:52;35.03;;;9.55;;
41897;SDS011;27576;53.366;-1.498;2024-02-28T00:04:18;43.22;;;10.50;;
41897;SDS011;27576;53.366;-1.498;2024-02-28T00:06:44;35.50;;;9.95;;
41897;SDS011;27576;53.366;-1.498;2024-02-28T00:09:11;32.55;;;9.77;;
41897;SDS011;27576;53.366;-1.498;2024-02-28T00:11:45;38.20;;;9.98;;
41897;SDS011;27576;53.366;-1.498;2024-02-28T00:14:12;38.20;;;9.73;;
41897;SDS011;27576;53.366;-1.498;2024-02-28T00:16:44;30.63;;;9.88;;
41897;SDS011;27576;53.366;-1.498;2024-02-28T00:19:10;40.78;;;10.88;;
41897;SDS011;27576;53.366;-1.498;2024-02-28T00:21:37;47.67;;;11.32;;
41897;SDS011;27576;53.366;-1.498;2024-02-28T00:24:03;46.65;;;11.52;;
41897;SDS011;27576;53.366;-1.498;2024-02-28T00:26:28;40.83;;;10.02;;
41897;SDS011;27576;53.366;-1.498;2024-02-28T00:28:54;48.40;;;13.13;;
41897;SDS011;27576;53.366;-1.498;2024-02-28T00:31:19;48.65;;;13.55;;
41897;SDS011;27576;53.366;-1.498;2024-02-28T00:33:46;37.17;;;10.43;;
41897;SDS011;27576;53.366;-1.498;2024-02-28T00:36:12;39.42;;;10.77;;
41897;SDS011;27576;53.366;-1.498;2024-02-28T00:38:37;40.05;;;10.20;;
41897;SDS011;27576;53.366;-1.498;2024-02-28T00:41:03;45.17;;;12.13;;
41897;SDS011;27576;53.366;-1.498;2024-02-28T00:43:28;48.17;;;12.63;;
41897;SDS011;27576;53.366;-1.498;2024-02-28T00:45:53;44.97;;;10.88;;
41897;SDS011;27576;53.366;-1.498;2024-02-28T00:48:20;53.25;;;11.00;;
41897;SDS011;27576;53.366;-1.498;2024-02-28T00:50:47;43.72;;;10.30;;
41897;SDS011;27576;53.366;-1.498;2024-02-28T00:53:12;36.35;;;9.73;;
41897;SDS011;27576;53.366;-1.498;2024-02-28T00:55:37;45.80;;;10.45;;
41897;SDS011;27576;53.366;-1.498;2024-02-28T00:58:03;45.20;;;10.88;;
41897;SDS011;27576;53.366;-1.498;2024-02-28T01:00:28;43.20;;;9.52;;
41897;SDS011;27576;53.366;-1.498;2024-02-28T01:02:54;39.35;;;9.75;;
41897;SDS011;27576;53.366;-1.498;2024-02-28T01:05:19;45.45;;;9.57;;
41897;SDS011;27576;53.366;-1.498;2024-02-28T01:07:45;37.60;;;8.65;;
41897;SDS011;27576;53.366;-1.498;2024-02-28T01:10:10;38.75;;;9.23;;
41897;SDS011;27576;53.366;-1.498;2024-02-28T01:12:36;43.63;;;10.20;;
41897;SDS011;27576;53.366;-1.498;2024-02-28T01:15:02;46.40;;;9.32;;
41897;SDS011;27576;53.366;-1.498;2024-02-28T01:17:28;33.58;;;8.77;;
41897;SDS011;27576;53.366;-1.498;2024-02-28T01:19:53;34.85;;;9.48;;
41897;SDS011;27576;53.366;-1.498;2024-02-28T01:22:19;42.22;;;9.75;;
41897;SDS011;27576;53.366;-1.498;2024-02-28T01:24:44;45.35;;;10.85;;
41897;SDS011;27576;53.366;-1.498;2024-02-28T01:27:09;32.30;;;8.32;;
41897;SDS011;27576;53.366;-1.498;2024-02-28T01:29:35;39.90;;;9.57;;
41897;SDS011;27576;53.366;-1.498;2024-02-28T01:32:00;33.28;;;9.73;;
41897;SDS011;27576;53.366;-1.498;2024-02-28T01:34:26;37.50;;;8.57;;
41897;SDS011;27576;53.366;-1.498;2024-02-28T01:36:51;35.70;;;9.52;;
41897;SDS011;27576;53.366;-1.498;2024-02-28T01:39:17;33.42;;;8.95;;
41897;SDS011;27576;53.366;-1.498;2024-02-28T01:41:50;40.95;;;9.80;;
41897;SDS011;27576;53.366;-1.498;2024-02-28T01:44:16;37.47;;;11.32;;
41897;SDS011;27576;53.366;-1.498;2024-02-28T01:46:42;39.60;;;10.35;;
41897;SDS011;27576;53.366;-1.498;2024-02-28T01:49:07;28.65;;;10.85;;
41897;SDS011;27576;53.366;-1.498;2024-02-28T01:51:33;32.38;;;10.45;;
41897;SDS011;27576;53.366;-1.498;2024-02-28T01:53:59;32.63;;;11.25;;
41897;SDS011;27576;53.366;-1.498;2024-02-28T01:56:24;52.95;;;13.15;;
41897;SDS011;27576;53.366;-1.498;2024-02-28T01:58:51;40.55;;;12.77;;
41897;SDS011;27576;53.366;-1.498;2024-02-28T02:01:19;38.38;;;11.20;;
41897;SDS011;27576;53.366;-1.498;2024-02-28T02:03:44;37.22;;;11.80;;
41897;SDS011;27576;53.366;-1.498;2024-02-28T02:06:10;43.10;;;12.25;;
41897;SDS011;27576;53.366;-1.498;2024-02-28T02:08:36;36.70;;;10.48;;
41897;SDS011;27576;53.366;-1.498;2024-02-28T02:11:02;33.30;;;10.10;;
41897;SDS011;27576;53.366;-1.498;2024-02-28T02:13:28;37.40;;;11.18;;
41897;SDS011;27576;53.366;-1.498;2024-02-28T02:15:53;30.75;;;9.40;;
41897;SDS011;27576;53.366;-1.498;2024-02-28T02:18:19;40.70;;;11.45;;
41897;SDS011;27576;53.366;-1.498;2024-02-28T02:20:46;41.78;;;11.82;;
41897;SDS011;27576;53.366;-1.498;2024-02-28T02:23:15;34.35;;;11.05;;
41897;SDS011;27576;53.366;-1.498;2024-02-28T02:25:47;36.42;;;11.57;;
41897;SDS011;27576;53.366;-1.498;2024-02-28T02:28:14;35.60;;;10.40;;
41897;SDS011;27576;53.366;-1.498;2024-02-28T02:30:40;44.33;;;11.15;;
41897;SDS011;27576;53.366;-1.498;2024-02-28T02:33:06;45.22;;;10.13;;
41897;SDS011;27576;53.366;-1.498;2024-02-28T02:35:32;36.13;;;10.10;;
41897;SDS011;27576;53.366;-1.498;2024-02-28T02:37:58;36.58;;;10.50;;
41897;SDS011;27576;53.366;-1.498;2024-02-28T02:40:26;34.60;;;10.45;;
41897;SDS011;27576;53.366;-1.498;2024-02-28T02:42:51;37.17;;;10.85;;
41897;SDS011;27576;53.366;-1.498;2024-02-28T02:45:17;31.45;;;9.50;;
41897;SDS011;27576;53.366;-1.498;2024-02-28T02:47:42;40.33;;;10.90;;
41897;SDS011;27576;53.366;-1.498;2024-02-28T02:50:09;36.17;;;11.05;;
41897;SDS011;27576;53.366;-1.498;2024-02-28T02:52:34;33.22;;;10.73;;
41897;SDS011;27576;53.366;-1.498;2024-02-28T02:55:00;42.10;;;10.95;;
41897;SDS011;27576;53.366;-1.498;2024-02-28T02:57:25;38.65;;;12.55;;
41897;SDS011;27576;53.366;-1.498;2024-02-28T02:59:51;42.50;;;11.35;;
41897;SDS011;27576;53.366;-1.498;2024-02-28T03:02:16;38.28;;;10.65;;
41897;SDS011;27576;53.366;-1.498;2024-02-28T03:04:42;39.95;;;11.23;;
41897;SDS011;27576;53.366;-1.498;2024-02-28T03:07:07;39.33;;;10.63;;
41897;SDS011;27576;53.366;-1.498;2024-02-28T03:09:32;39.63;;;10.68;;
41897;SDS011;27576;53.366;-1.498;2024-02-28T03:11:58;32.72;;;10.73;;
41897;SDS011;27576;53.366;-1.498;2024-02-28T03:14:25;34.22;;;9.75;;
41897;SDS011;27576;53.366;-1.498;2024-02-28T03:16:52;40.55;;;11.15;;
41897;SDS011;27576;53.366;-1.498;2024-02-28T03:19:18;34.05;;;10.80;;
41897;SDS011;27576;53.366;-1.498;2024-02-28T03:21:44;37.05;;;12.00;;
41897;SDS011;27576;53.366;-1.498;2024-02-28T03:24:09;40.10;;;11.32;;
41897;SDS011;27576;53.366;-1.498;2024-02-28T03:26:34;42.45;;;11.73;;
41897;SDS011;27576;53.366;-1.498;2024-02-28T03:29:00;43.33;;;13.02;;
41897;SDS011;27576;53.366;-1.498;2024-02-28T03:31:26;36.13;;;11.43;;
41897;SDS011;27576;53.366;-1.498;2024-02-28T03:33:51;46.08;;;12.77;;
41897;SDS011;27576;53.366;-1.498;2024-02-28T03:36:17;39.47;;;12.23;;
41897;SDS011;27576;53.366;-1.498;2024-02-28T03:38:42;35.22;;;10.77;;
41897;SDS011;27576;53.366;-1.498;2024-02-28T03:41:09;32.13;;;12.18;;
41897;SDS011;27576;53.366;-1.498;2024-02-28T03:43:34;37.72;;;11.70;;
41897;SDS011;27576;53.366;-1.498;2024-02-28T03:46:00;37.22;;;10.40;;
41897;SDS011;27576;53.366;-1.498;2024-02-28T03:48:25;34.13;;;11.02;;
41897;SDS011;27576;53.366;-1.498;2024-02-28T03:50:51;35.53;;;11.38;;
41897;SDS011;27576;53.366;-1.498;2024-02-28T03:53:16;38.00;;;12.15;;
41897;SDS011;27576;53.366;-1.498;2024-02-28T03:55:42;37.90;;;11.45;;
41897;SDS011;27576;53.366;-1.498;2024-02-28T03:58:09;37.38;;;11.52;;
41897;SDS011;27576;53.366;-1.498;2024-02-28T04:00:35;35.65;;;11.45;;
41897;SDS011;27576;53.366;-1.498;2024-02-28T04:03:01;46.25;;;11.32;;
41897;SDS011;27576;53.366;-1.498;2024-02-28T04:05:27;41.97;;;11.30;;
41897;SDS011;27576;53.366;-1.498;2024-02-28T04:07:53;37.63;;;12.23;;
41897;SDS011;27576;53.366;-1.498;2024-02-28T04:10:18;43.92;;;10.88;;
41897;SDS011;27576;53.366;-1.498;2024-02-28T04:12:44;28.13;;;9.40;;
41897;SDS011;27576;53.366;-1.498;2024-02-28T04:15:10;36.53;;;11.27;;
41897;SDS011;27576;53.366;-1.498;2024-02-28T04:17:38;39.00;;;11.90;;
41897;SDS011;27576;53.366;-1.498;2024-02-28T04:20:11;34.20;;;11.38;;
41897;SDS011;27576;53.366;-1.498;2024-02-28T04:22:37;38.05;;;11.00;;
41897;SDS011;27576;53.366;-1.498;2024-02-28T04:25:07;38.17;;;11.65;;
41897;SDS011;27576;53.366;-1.498;2024-02-28T04:27:34;42.20;;;10.35;;
41897;SDS011;27576;53.366;-1.498;2024-02-28T04:30:03;34.17;;;11.02;;
41897;SDS011;27576;53.366;-1.498;2024-02-28T04:32:29;27.15;;;10.15;;
41897;SDS011;27576;53.366;-1.498;2024-02-28T04:34:54;33.63;;;10.02;;
41897;SDS011;27576;53.366;-1.498;2024-02-28T04:37:20;35.75;;;10.43;;
41897;SDS011;27576;53.366;-1.498;2024-02-28T04:39:46;31.83;;;11.30;;
41897;SDS011;27576;53.366;-1.498;2024-02-28T04:42:12;31.95;;;9.75;;
41897;SDS011;27576;53.366;-1.498;2024-02-28T04:44:38;40.00;;;11.05;;
41897;SDS011;27576;53.366;-1.498;2024-02-28T04:47:03;32.15;;;9.07;;
41897;SDS011;27576;53.366;-1.498;2024-02-28T04:49:29;34.55;;;10.35;;
41897;SDS011;27576;53.366;-1.498;2024-02-28T04:51:55;31.20;;;9.13;;
41897;SDS011;27576;53.366;-1.498;2024-02-28T04:54:20;44.40;;;10.18;;
41897;SDS011;27576;53.366;-1.498;2024-02-28T04:56:46;41.92;;;11.35;;
41897;SDS011;27576;53.366;-1.498;2024-02-28T04:59:11;35.90;;;9.88;;
41897;SDS011;27576;53.366;-1.498;2024-02-28T05:01:40;34.60;;;9.57;;
41897;SDS011;27576;53.366;-1.498;2024-02-28T05:04:07;29.30;;;9.68;;
41897;SDS011;27576;53.366;-1.498;2024-02-28T05:06:33;32.13;;;10.02;;
41897;SDS011;27576;53.366;-1.498;2024-02-28T05:08:59;30.88;;;10.00;;
41897;SDS011;27576;53.366;-1.498;2024-02-28T05:11:24;30.77;;;8.63;;
41897;SDS011;27576;53.366;-1.498;2024-02-28T05:13:50;35.70;;;9.20;;
41897;SDS011;27576;53.366;-1.498;2024-02-28T05:16:15;37.45;;;8.55;;
41897;SDS011;27576;53.366;-1.498;2024-02-28T05:18:41;34.58;;;9.35;;
41897;SDS011;27576;53.366;-1.498;2024-02-28T05:21:09;46.38;;;14.80;;
41897;SDS011;27576;53.366;-1.498;2024-02-28T05:23:35;33.85;;;13.00;;
41897;SDS011;27576;53.366;-1.498;2024-02-28T05:26:01;42.28;;;13.68;;
41897;SDS011;27576;53.366;-1.498;2024-02-28T05:28:29;28.92;;;10.40;;
41897;SDS011;27576;53.366;-1.498;2024-02-28T05:30:56;28.33;;;10.23;;
41897;SDS011;27576;53.366;-1.498;2024-02-28T05:33:21;30.77;;;9.07;;
41897;SDS011;27576;53.366;-1.498;2024-02-28T05:35:47;32.13;;;8.23;;
41897;SDS011;27576;53.366;-1.498;2024-02-28T05:38:12;33.63;;;8.07;;
41897;SDS011;27576;53.366;-1.498;2024-02-28T05:40:38;24.98;;;7.25;;
41897;SDS011;27576;53.366;-1.498;2024-02-28T05:43:03;30.08;;;7.45;;
41897;SDS011;27576;53.366;-1.498;2024-02-28T05:45:29;19.30;;;6.05;;
41897;SDS011;27576;53.366;-1.498;2024-02-28T05:47:54;27.98;;;8.55;;
41897;SDS011;27576;53.366;-1.498;2024-02-28T05:50:20;27.25;;;7.55;;
41897;SDS011;27576;53.366;-1.498;2024-02-28T05:52:45;26.77;;;7.10;;
41897;SDS011;27576;53.366;-1.498;2024-02-28T05:55:11;27.75;;;7.95;;
41897;SDS011;27576;53.366;-1.498;2024-02-28T05:57:37;25.00;;;7.18;;
41897;SDS011;27576;53.366;-1.498;2024-02-28T06:00:03;34.58;;;7.68;;
41897;SDS011;27576;53.366;-1.498;2024-02-28T06:02:34;29.08;;;7.95;;
41897;SDS011;27576;53.366;-1.498;2024-02-28T06:05:01;34.88;;;7.93;;
41897;SDS011;27576;53.366;-1.498;2024-02-28T06:07:26;29.30;;;7.75;;
41897;SDS011;27576;53.366;-1.498;2024-02-28T06:09:52;24.27;;;6.32;;
41897;SDS011;27576;53.366;-1.498;2024-02-28T06:12:17;30.25;;;6.68;;
41897;SDS011;27576;53.366;-1.498;2024-02-28T06:14:42;27.67;;;7.03;;
41897;SDS011;27576;53.366;-1.498;2024-02-28T06:17:08;24.90;;;6.70;;
41897;SDS011;27576;53.366;-1.498;2024-02-28T06:19:33;25.73;;;6.80;;
41897;SDS011;27576;53.366;-1.498;2024-02-28T06:21:59;27.25;;;7.30;;
41897;SDS011;27576;53.366;-1.498;2024-02-28T06:24:24;26.70;;;8.45;;
41897;SDS011;27576;53.366;-1.498;2024-02-28T06:26:49;25.67;;;7.65;;
41897;SDS011;27576;53.366;-1.498;2024-02-28T06:29:15;38.40;;;8.55;;
41897;SDS011;27576;53.366;-1.498;2024-02-28T06:31:40;29.90;;;8.00;;
41897;SDS011;27576;53.366;-1.498;2024-02-28T06:34:06;26.17;;;8.07;;
41897;SDS011;27576;53.366;-1.498;2024-02-28T06:36:31;22.65;;;6.72;;
41897;SDS011;27576;53.366;-1.498;2024-02-28T06:38:57;31.30;;;7.68;;
41897;SDS011;27576;53.366;-1.498;2024-02-28T06:41:23;30.55;;;8.25;;
41897;SDS011;27576;53.366;-1.498;2024-02-28T06:43:48;25.75;;;7.38;;
41897;SDS011;27576;53.366;-1.498;2024-02-28T06:46:14;25.73;;;7.68;;
41897;SDS011;27576;53.366;-1.498;2024-02-28T06:48:39;25.15;;;7.60;;
41897;SDS011;27576;53.366;-1.498;2024-02-28T06:51:05;35.20;;;8.82;;
41897;SDS011;27576;53.366;-1.498;2024-02-28T06:53:30;27.70;;;7.60;;
41897;SDS011;27576;53.366;-1.498;2024-02-28T06:55:56;28.90;;;8.63;;
41897;SDS011;27576;53.366;-1.498;2024-02-28T06:58:21;24.17;;;7.40;;
41897;SDS011;27576;53.366;-1.498;2024-02-28T07:00:49;26.38;;;8.00;;
41897;SDS011;27576;53.366;-1.498;2024-02-28T07:03:14;27.65;;;8.55;;
41897;SDS011;27576;53.366;-1.498;2024-02-28T07:05:40;23.95;;;7.65;;
41897;SDS011;27576;53.366;-1.498;2024-02-28T07:08:06;24.90;;;6.93;;
41897;SDS011;27576;53.366;-1.498;2024-02-28T07:10:31;28.33;;;7.72;;
41897;SDS011;27576;53.366;-1.498;2024-02-28T07:12:57;26.02;;;7.53;;
41897;SDS011;27576;53.366;-1.498;2024-02-28T07:15:22;27.08;;;7.43;;
41897;SDS011;27576;53.366;-1.498;2024-02-28T07:17:48;27.48;;;7.40;;
41897;SDS011;27576;53.366;-1.498;2024-02-28T07:20:13;34.42;;;8.25;;
41897;SDS011;27576;53.366;-1.498;2024-02-28T07:22:39;26.83;;;6.90;;
41897;SDS011;27576;53.366;-1.498;2024-02-28T07:25:05;24.10;;;7.32;;
41897;SDS011;27576;53.366;-1.498;2024-02-28T07:27:32;22.25;;;5.45;;
41897;SDS011;27576;53.366;-1.498;2024-02-28T07:29:58;23.88;;;6.32;;
41897;SDS011;27576;53.366;-1.498;2024-02-28T07:32:23;34.20;;;6.95;;
41897;SDS011;27576;53.366;-1.498;2024-02-28T07:34:49;27.50;;;6.38;;
41897;SDS011;27576;53.366;-1.498;2024-02-28T07:37:14;25.90;;;7.13;;
41897;SDS011;27576;53.366;-1.498;2024-02-28T07:39:39;28.98;;;7.65;;
41897;SDS011;27576;53.366;-1.498;2024-02-28T07:42:05;25.40;;;6.70;;
41897;SDS011;27576;53.366;-1.498;2024-02-28T07:44:30;28.85;;;7.55;;
41897;SDS011;27576;53.366;-1.498;2024-02-28T07:46:57;23.23;;;6.53;;
41897;SDS011;27576;53.366;-1.498;2024-02-28T07:49:23;31.98;;;8.23;;
41897;SDS011;27576;53.366;-1.498;2024-02-28T07:51:48;20.92;;;5.60;;
41897;SDS011;27576;53.366;-1.498;2024-02-28T07:54:14;31.70;;;7.35;;
41897;SDS011;27576;53.366;-1.498;2024-02-28T07:56:40;32.47;;;7.00;;
41897;SDS011;27576;53.366;-1.498;2024-02-28T07:59:05;34.50;;;7.53;;
41897;SDS011;27576;53.366;-1.498;2024-02-28T08:01:31;32.33;;;7.25;;
41897;SDS011;27576;53.366;-1.498;2024-02-28T08:03:56;34.42;;;8.00;;
41897;SDS011;27576;53.366;-1.498;2024-02-28T08:06:22;33.65;;;7.50;;
41897;SDS011;27576;53.366;-1.498;2024-02-28T08:08:47;30.63;;;6.80;;
41897;SDS011;27576;53.366;-1.498;2024-02-28T08:11:12;37.92;;;7.60;;
41897;SDS011;27576;53.366;-1.498;2024-02-28T08:13:38;39.83;;;7.18;;
41897;SDS011;27576;53.366;-1.498;2024-02-28T08:16:04;29.25;;;6.68;;
41897;SDS011;27576;53.366;-1.498;2024-02-28T08:18:29;40.08;;;8.13;;
41897;SDS011;27576;53.366;-1.498;2024-02-28T08:20:55;28.95;;;6.35;;
41897;SDS011;27576;53.366;-1.498;2024-02-28T08:23:22;24.98;;;7.03;;
41897;SDS011;27576;53.366;-1.498;2024-02-28T08:25:48;28.88;;;7.40;;
41897;SDS011;27576;53.366;-1.498;2024-02-28T08:28:14;30.65;;;7.25;;
41897;SDS011;27576;53.366;-1.498;2024-02-28T08:30:40;37.70;;;7.93;;
41897;SDS011;27576;53.366;-1.498;2024-02-28T08:33:08;34.53;;;7.20;;
41897;SDS011;27576;53.366;-1.498;2024-02-28T08:35:35;29.27;;;6.47;;
41897;SDS011;27576;53.366;-1.498;2024-02-28T08:38:01;26.88;;;6.93;;
41897;SDS011;27576;53.366;-1.498;2024-02-28T08:40:28;26.77;;;7.82;;
41897;SDS011;27576;53.366;-1.498;2024-02-28T08:42:53;29.60;;;6.68;;
41897;SDS011;27576;53.366;-1.498;2024-02-28T08:45:19;21.83;;;7.80;;
41897;SDS011;27576;53.366;-1.498;2024-02-28T08:47:46;20.52;;;5.63;;
41897;SDS011;27576;53.366;-1.498;2024-02-28T08:50:11;28.42;;;7.00;;
41897;SDS011;27576;53.366;-1.498;2024-02-28T08:52:37;16.10;;;5.35;;
41897;SDS011;27576;53.366;-1.498;2024-02-28T08:55:02;29.52;;;6.20;;
41897;SDS011;27576;53.366;-1.498;2024-02-28T08:57:28;23.05;;;5.60;;
41897;SDS011;27576;53.366;-1.498;2024-02-28T08:59:55;26.50;;;6.32;;
41897;SDS011;27576;53.366;-1.498;2024-02-28T09:02:20;15.40;;;4.72;;
41897;SDS011;27576;53.366;-1.498;2024-02-28T09:04:47;17.45;;;5.78;;
41897;SDS011;27576;53.366;-1.498;2024-02-28T09:07:17;20.90;;;5.47;;
41897;SDS011;27576;53.366;-1.498;2024-02-28T09:09:45;30.02;;;6.45;;
41897;SDS011;27576;53.366;-1.498;2024-02-28T09:12:10;26.27;;;6.45;;
41897;SDS011;27576;53.366;-1.498;2024-02-28T09:14:36;24.75;;;5.63;;
41897;SDS011;27576;53.366;-1.498;2024-02-28T09:17:01;31.60;;;7.20;;
41897;SDS011;27576;53.366;-1.498;2024-02-28T09:19:30;36.00;;;6.95;;
41897;SDS011;27576;53.366;-1.498;2024-02-28T09:21:58;26.83;;;6.28;;
41897;SDS011;27576;53.366;-1.498;2024-02-28T09:24:24;25.38;;;5.93;;
41897;SDS011;27576;53.366;-1.498;2024-02-28T09:26:50;30.90;;;6.00;;
41897;SDS011;27576;53.366;-1.498;2024-02-28T09:29:15;32.63;;;7.53;;
41897;SDS011;27576;53.366;-1.498;2024-02-28T09:31:41;35.42;;;7.03;;
41897;SDS011;27576;53.366;-1.498;2024-02-28T09:34:06;26.40;;;6.80;;
41897;SDS011;27576;53.366;-1.498;2024-02-28T09:36:32;37.28;;;6.63;;
41897;SDS011;27576;53.366;-1.498;2024-02-28T09:38:59;31.27;;;6.68;;
41897;SDS011;27576;53.366;-1.498;2024-02-28T09:41:24;26.17;;;5.95;;
41897;SDS011;27576;53.366;-1.498;2024-02-28T09:43:51;28.17;;;6.22;;
41897;SDS011;27576;53.366;-1.498;2024-02-28T09:46:17;25.08;;;6.10;;
41897;SDS011;27576;53.366;-1.498;2024-02-28T09:48:43;30.08;;;6.47;;
41897;SDS011;27576;53.366;-1.498;2024-02-28T09:51:13;30.27;;;7.47;;
41897;SDS011;27576;53.366;-1.498;2024-02-28T09:53:40;27.30;;;6.57;;
41897;SDS011;27576;53.366;-1.498;2024-02-28T09:56:06;26.95;;;5.63;;
41897;SDS011;27576;53.366;-1.498;2024-02-28T09:58:32;30.13;;;7.30;;
41897;SDS011;27576;53.366;-1.498;2024-02-28T10:01:00;30.80;;;6.10;;
41897;SDS011;27576;53.366;-1.498;2024-02-28T10:03:28;30.13;;;6.82;;
41897;SDS011;27576;53.366;-1.498;2024-02-28T10:05:55;41.47;;;8.25;;
41897;SDS011;27576;53.366;-1.498;2024-02-28T10:08:20;28.40;;;6.93;;
41897;SDS011;27576;53.366;-1.498;2024-02-28T10:10:49;32.55;;;6.43;;
41897;SDS011;27576;53.366;-1.498;2024-02-28T10:13:19;30.30;;;6.68;;
41897;SDS011;27576;53.366;-1.498;2024-02-28T10:15:45;19.75;;;5.40;;
41897;SDS011;27576;53.366;-1.498;2024-02-28T10:18:11;29.58;;;5.90;;
41897;SDS011;27576;53.366;-1.498;2024-02-28T10:20:36;31.23;;;7.47;;
41897;SDS011;27576;53.366;-1.498;2024-02-28T10:23:04;35.40;;;7.60;;
41897;SDS011;27576;53.366;-1.498;2024-02-28T10:25:30;35.30;;;6.57;;
41897;SDS011;27576;53.366;-1.498;2024-02-28T10:28:00;34.15;;;7.50;;
41897;SDS011;27576;53.366;-1.498;2024-02-28T10:30:26;30.95;;;6.93;;
41897;SDS011;27576;53.366;-1.498;2024-02-28T10:32:52;29.20;;;6.65;;
41897;SDS011;27576;53.366;-1.498;2024-02-28T10:35:17;30.23;;;6.35;;
41897;SDS011;27576;53.366;-1.498;2024-02-28T10:37:50;26.48;;;6.30;;
41897;SDS011;27576;53.366;-1.498;2024-02-28T10:40:19;27.08;;;5.40;;
41897;SDS011;27576;53.366;-1.498;2024-02-28T10:42:46;30.33;;;6.25;;
41897;SDS011;27576;53.366;-1.498;2024-02-28T10:45:13;22.08;;;6.00;;
41897;SDS011;27576;53.366;-1.498;2024-02-28T10:47:39;28.30;;;7.15;;
41897;SDS011;27576;53.366;-1.498;2024-02-28T10:50:05;24.40;;;5.90;;
41897;SDS011;27576;53.366;-1.498;2024-02-28T10:52:32;23.25;;;5.95;;
41897;SDS011;27576;53.366;-1.498;2024-02-28T10:54:59;28.25;;;6.93;;
41897;SDS011;27576;53.366;-1.498;2024-02-28T10:57:27;25.25;;;6.95;;
41897;SDS011;27576;53.366;-1.498;2024-02-28T10:59:54;27.77;;;7.60;;
41897;SDS011;27576;53.366;-1.498;2024-02-28T11:02:21;27.65;;;6.75;;
41897;SDS011;27576;53.366;-1.498;2024-02-28T11:04:51;31.15;;;6.88;;
41897;SDS011;27576;53.366;-1.498;2024-02-28T11:07:20;33.80;;;7.53;;
41897;SDS011;27576;53.366;-1.498;2024-02-28T11:09:46;30.63;;;8.63;;
41897;SDS011;27576;53.366;-1.498;2024-02-28T11:12:25;25.27;;;6.90;;
41897;SDS011;27576;53.366;-1.498;2024-02-28T11:14:59;30.48;;;7.88;;
41897;SDS011;27576;53.366;-1.498;2024-02-28T11:17:27;27.10;;;8.70;;
41897;SDS011;27576;53.366;-1.498;2024-02-28T11:19:55;25.33;;;7.10;;
41897;SDS011;27576;53.366;-1.498;2024-02-28T11:22:21;34.60;;;7.97;;
41897;SDS011;27576;53.366;-1.498;2024-02-28T11:24:47;24.98;;;7.05;;
41897;SDS011;27576;53.366;-1.498;2024-02-28T11:27:13;30.02;;;6.88;;
41897;SDS011;27576;53.366;-1.498;2024-02-28T11:29:39;34.50;;;7.72;;
41897;SDS011;27576;53.366;-1.498;2024-02-28T11:32:04;42.15;;;8.82;;
41897;SDS011;27576;53.366;-1.498;2024-02-28T11:34:30;36.70;;;8.70;;
41897;SDS011;27576;53.366;-1.498;2024-02-28T11:36:56;29.52;;;8.50;;
41897;SDS011;27576;53.366;-1.498;2024-02-28T11:39:23;36.72;;;8.70;;
41897;SDS011;27576;53.366;-1.498;2024-02-28T11:41:51;33.30;;;8.45;;
41897;SDS011;27576;53.366;-1.498;2024-02-28T11:44:18;33.40;;;8.43;;
41897;SDS011;27576;53.366;-1.498;2024-02-28T11:46:47;30.10;;;7.75;;
41897;SDS011;27576;53.366;-1.498;2024-02-28T11:49:14;32.92;;;9.05;;
41897;SDS011;27576;53.366;-1.498;2024-02-28T11:51:40;29.33;;;8.35;;
41897;SDS011;27576;53.366;-1.498;2024-02-28T11:54:09;25.30;;;8.35;;
41897;SDS011;27576;53.366;-1.498;2024-02-28T11:56:40;29.35;;;8.55;;
41897;SDS011;27576;53.366;-1.498;2024-02-28T11:59:06;32.80;;;9.02;;
41897;SDS011;27576;53.366;-1.498;2024-02-28T12:03:58;30.70;;;8.48;;
41897;SDS011;27576;53.366;-1.498;2024-02-28T12:06:24;31.80;;;12.82;;
41897;SDS011;27576;53.366;-1.498;2024-02-28T12:08:50;33.38;;;9.27;;
41897;SDS011;27576;53.366;-1.498;2024-02-28T12:11:15;29.75;;;9.02;;
41897;SDS011;27576;53.366;-1.498;2024-02-28T12:13:41;26.98;;;7.18;;
41897;SDS011;27576;53.366;-1.498;2024-02-28T12:16:07;27.23;;;7.45;;
41897;SDS011;27576;53.366;-1.498;2024-02-28T12:18:34;27.67;;;6.88;;
41897;SDS011;27576;53.366;-1.498;2024-02-28T12:21:00;23.90;;;7.22;;
41897;SDS011;27576;53.366;-1.498;2024-02-28T12:23:25;25.95;;;7.10;;
41897;SDS011;27576;53.366;-1.498;2024-02-28T12:25:51;26.63;;;7.53;;
41897;SDS011;27576;53.366;-1.498;2024-02-28T12:28:16;26.83;;;7.10;;
41897;SDS011;27576;53.366;-1.498;2024-02-28T12:30:42;29.23;;;7.60;;
41897;SDS011;27576;53.366;-1.498;2024-02-28T12:33:08;24.08;;;6.55;;
41897;SDS011;27576;53.366;-1.498;2024-02-28T12:35:34;24.45;;;6.53;;
41897;SDS011;27576;53.366;-1.498;2024-02-28T12:37:59;29.70;;;6.82;;
41897;SDS011;27576;53.366;-1.498;2024-02-28T12:40:24;22.88;;;6.82;;
41897;SDS011;27576;53.366;-1.498;2024-02-28T12:42:50;27.92;;;7.15;;
41897;SDS011;27576;53.366;-1.498;2024-02-28T12:45:15;21.38;;;6.53;;
41897;SDS011;27576;53.366;-1.498;2024-02-28T12:47:41;22.85;;;5.95;;
41897;SDS011;27576;53.366;-1.498;2024-02-28T12:50:06;22.90;;;5.80;;
41897;SDS011;27576;53.366;-1.498;2024-02-28T12:52:33;18.33;;;6.10;;
41897;SDS011;27576;53.366;-1.498;2024-02-28T12:55:00;20.13;;;6.05;;
41897;SDS011;27576;53.366;-1.498;2024-02-28T12:57:26;21.13;;;5.65;;
41897;SDS011;27576;53.366;-1.498;2024-02-28T12:59:51;22.40;;;5.43;;
41897;SDS011;27576;53.366;-1.498;2024-02-28T13:02:17;18.42;;;5.10;;
41897;SDS011;27576;53.366;-1.498;2024-02-28T13:04:44;20.65;;;5.30;;
41897;SDS011;27576;53.366;-1.498;2024-02-28T13:07:10;19.73;;;5.70;;
41897;SDS011;27576;53.366;-1.498;2024-02-28T13:09:35;20.27;;;5.55;;
41897;SDS011;27576;53.366;-1.498;2024-02-28T13:12:01;21.25;;;5.15;;
41897;SDS011;27576;53.366;-1.498;2024-02-28T13:14:27;22.73;;;6.28;;
41897;SDS011;27576;53.366;-1.498;2024-02-28T13:16:52;21.42;;;5.68;;
41897;SDS011;27576;53.366;-1.498;2024-02-28T13:19:19;14.30;;;4.95;;
41897;SDS011;27576;53.366;-1.498;2024-02-28T13:21:45;19.58;;;5.70;;
41897;SDS011;27576;53.366;-1.498;2024-02-28T13:24:10;17.00;;;5.43;;
41897;SDS011;27576;53.366;-1.498;2024-02-28T13:26:36;17.33;;;5.18;;
41897;SDS011;27576;53.366;-1.498;2024-02-28T13:29:01;15.23;;;5.68;;
41897;SDS011;27576;53.366;-1.498;2024-02-28T13:31:27;13.52;;;5.32;;
41897;SDS011;27576;53.366;-1.498;2024-02-28T13:33:53;21.23;;;6.22;;
41897;SDS011;27576;53.366;-1.498;2024-02-28T13:36:18;20.30;;;6.10;;
41897;SDS011;27576;53.366;-1.498;2024-02-28T13:38:44;22.08;;;5.90;;
41897;SDS011;27576;53.366;-1.498;2024-02-28T13:41:09;19.38;;;6.43;;
41897;SDS011;27576;53.366;-1.498;2024-02-28T13:43:35;22.52;;;5.55;;
41897;SDS011;27576;53.366;-1.498;2024-02-28T13:46:00;16.77;;;5.50;;
41897;SDS011;27576;53.366;-1.498;2024-02-28T13:48:26;21.48;;;6.53;;
41897;SDS011;27576;53.366;-1.498;2024-02-28T13:50:53;13.93;;;6.45;;
41897;SDS011;27576;53.366;-1.498;2024-02-28T13:53:19;20.83;;;6.55;;
41897;SDS011;27576;53.366;-1.498;2024-02-28T13:55:45;21.92;;;6.18;;
41897;SDS011;27576;53.366;-1.498;2024-02-28T13:58:11;15.23;;;5.40;;
41897;SDS011;27576;53.366;-1.498;2024-02-28T14:00:37;14.00;;;5.10;;
41897;SDS011;27576;53.366;-1.498;2024-02-28T14:03:04;25.48;;;7.03;;
41897;SDS011;27576;53.366;-1.498;2024-02-28T14:05:31;21.95;;;6.00;;
41897;SDS011;27576;53.366;-1.498;2024-02-28T14:07:57;21.17;;;7.32;;
41897;SDS011;27576;53.366;-1.498;2024-02-28T14:10:22;16.50;;;6.15;;
41897;SDS011;27576;53.366;-1.498;2024-02-28T14:12:48;22.70;;;6.53;;
41897;SDS011;27576;53.366;-1.498;2024-02-28T14:15:14;25.85;;;8.45;;